sensor_id;sensor_type;location;lat;lon;timestamp;P1;durP1;ratioP1;P2;durP2;ratioP2
84288;SDS011;75147;50.294;18.660;2024-02-21T00:02:06;13.73;;;4.30;;
84288;SDS011;75147;50.294;18.660;2024-02-21T00:04:31;13.05;;;4.28;;
84288;SDS011;75147;50.294;18.660;2024-02-21T00:06:57;13.45;;;4.55;;
84288;SDS011;75147;50.294;18.660;2024-02-21T00:09:22;15.55;;;5.30;;
84288;SDS011;75147;50.294;18.660;2024-02-21T00:11:47;10.35;;;4.43;;
84288;SDS011;75147;50.294;18.660;2024-02-21T00:14:13;12.70;;;4.85;;
84288;SDS011;75147;50.294;18.660;2024-02-21T00:16:38;10.50;;;5.03;;
84288;SDS011;75147;50.294;18.660;2024-02-21T00:19:03;14.10;;;4.93;;
84288;SDS011;75147;50.294;18.660;2024-02-21T00:21:29;13.38;;;4.50;;
84288;SDS011;75147;50.294;18.660;2024-02-21T00:23:54;12.38;;;4.55;;
84288;SDS011;75147;50.294;18.660;2024-02-21T00:26:20;13.32;;;4.88;;
84288;SDS011;75147;50.294;18.660;2024-02-21T00:28:46;12.25;;;4.43;;
84288;SDS011;75147;50.294;18.660;2024-02-21T00:31:11;9.15;;;4.18;;
84288;SDS011;75147;50.294;18.660;2024-02-21T00:33:37;11.57;;;4.28;;
84288;SDS011;75147;50.294;18.660;2024-02-21T00:36:02;11.60;;;4.63;;
84288;SDS011;75147;50.294;18.660;2024-02-21T00:38:28;13.25;;;4.43;;
84288;SDS011;75147;50.294;18.660;2024-02-21T00:40:54;11.32;;;4.28;;
84288;SDS011;75147;50.294;18.660;2024-02-21T00:43:19;14.45;;;4.78;;
84288;SDS011;75147;50.294;18.660;2024-02-21T00:45:48;11.75;;;4.47;;
84288;SDS011;75147;50.294;18.660;2024-02-21T00:48:14;13.20;;;4.32;;
84288;SDS011;75147;50.294;18.660;2024-02-21T00:50:39;9.20;;;4.15;;
84288;SDS011;75147;50.294;18.660;2024-02-21T00:53:05;11.07;;;4.10;;
84288;SDS011;75147;50.294;18.660;2024-02-21T00:55:30;7.30;;;3.55;;
84288;SDS011;75147;50.294;18.660;2024-02-21T00:57:55;9.55;;;3.83;;
84288;SDS011;75147;50.294;18.660;2024-02-21T01:00:21;9.60;;;3.33;;
84288;SDS011;75147;50.294;18.660;2024-02-21T01:02:47;9.95;;;3.05;;
84288;SDS011;75147;50.294;18.660;2024-02-21T01:05:12;10.45;;;3.17;;
84288;SDS011;75147;50.294;18.660;2024-02-21T01:07:38;9.80;;;3.53;;
84288;SDS011;75147;50.294;18.660;2024-02-21T01:10:03;10.57;;;3.58;;
84288;SDS011;75147;50.294;18.660;2024-02-21T01:12:29;10.02;;;4.00;;
84288;SDS011;75147;50.294;18.660;2024-02-21T01:14:54;12.73;;;5.00;;
84288;SDS011;75147;50.294;18.660;2024-02-21T01:17:20;14.10;;;5.40;;
84288;SDS011;75147;50.294;18.660;2024-02-21T01:19:46;12.10;;;4.95;;
84288;SDS011;75147;50.294;18.660;2024-02-21T01:22:11;10.77;;;4.20;;
84288;SDS011;75147;50.294;18.660;2024-02-21T01:24:37;14.65;;;4.95;;
84288;SDS011;75147;50.294;18.660;2024-02-21T01:27:02;7.97;;;4.25;;
84288;SDS011;75147;50.294;18.660;2024-02-21T01:29:28;10.18;;;4.72;;
84288;SDS011;75147;50.294;18.660;2024-02-21T01:31:53;14.13;;;4.60;;
84288;SDS011;75147;50.294;18.660;2024-02-21T01:34:19;14.20;;;5.38;;
84288;SDS011;75147;50.294;18.660;2024-02-21T01:36:44;12.32;;;4.30;;
84288;SDS011;75147;50.294;18.660;2024-02-21T01:39:09;8.57;;;4.20;;
84288;SDS011;75147;50.294;18.660;2024-02-21T01:41:35;11.68;;;4.43;;
84288;SDS011;75147;50.294;18.660;2024-02-21T01:44:00;13.35;;;4.88;;
84288;SDS011;75147;50.294;18.660;2024-02-21T01:46:25;11.63;;;4.80;;
84288;SDS011;75147;50.294;18.660;2024-02-21T01:48:54;11.32;;;3.85;;
84288;SDS011;75147;50.294;18.660;2024-02-21T01:51:21;11.38;;;4.65;;
84288;SDS011;75147;50.294;18.660;2024-02-21T01:53:46;9.23;;;4.10;;
84288;SDS011;75147;50.294;18.660;2024-02-21T01:56:12;10.13;;;3.80;;
84288;SDS011;75147;50.294;18.660;2024-02-21T01:58:39;16.58;;;4.90;;
84288;SDS011;75147;50.294;18.660;2024-02-21T02:01:07;12.18;;;4.65;;
84288;SDS011;75147;50.294;18.660;2024-02-21T02:03:33;10.35;;;4.60;;
84288;SDS011;75147;50.294;18.660;2024-02-21T02:05:58;14.98;;;5.60;;
84288;SDS011;75147;50.294;18.660;2024-02-21T02:08:24;13.20;;;5.22;;
84288;SDS011;75147;50.294;18.660;2024-02-21T02:10:51;8.63;;;4.32;;
84288;SDS011;75147;50.294;18.660;2024-02-21T02:13:17;12.35;;;5.30;;
84288;SDS011;75147;50.294;18.660;2024-02-21T02:15:43;12.52;;;4.85;;
84288;SDS011;75147;50.294;18.660;2024-02-21T02:18:10;12.65;;;4.97;;
84288;SDS011;75147;50.294;18.660;2024-02-21T02:20:36;8.43;;;4.05;;
84288;SDS011;75147;50.294;18.660;2024-02-21T02:23:11;10.40;;;4.35;;
84288;SDS011;75147;50.294;18.660;2024-02-21T02:25:40;12.07;;;5.40;;
84288;SDS011;75147;50.294;18.660;2024-02-21T02:28:06;18.80;;;5.85;;
84288;SDS011;75147;50.294;18.660;2024-02-21T02:30:32;9.90;;;5.90;;
84288;SDS011;75147;50.294;18.660;2024-02-21T02:32:59;12.13;;;5.72;;
84288;SDS011;75147;50.294;18.660;2024-02-21T02:35:24;14.52;;;6.20;;
84288;SDS011;75147;50.294;18.660;2024-02-21T02:37:50;12.35;;;5.90;;
84288;SDS011;75147;50.294;18.660;2024-02-21T02:40:16;10.70;;;5.47;;
84288;SDS011;75147;50.294;18.660;2024-02-21T02:42:43;16.63;;;5.63;;
84288;SDS011;75147;50.294;18.660;2024-02-21T02:45:08;15.43;;;5.28;;
84288;SDS011;75147;50.294;18.660;2024-02-21T02:47:34;12.60;;;4.80;;
84288;SDS011;75147;50.294;18.660;2024-02-21T02:49:59;13.70;;;5.18;;
84288;SDS011;75147;50.294;18.660;2024-02-21T02:52:25;10.13;;;4.63;;
84288;SDS011;75147;50.294;18.660;2024-02-21T02:54:50;13.45;;;5.80;;
84288;SDS011;75147;50.294;18.660;2024-02-21T02:57:17;11.20;;;5.20;;
84288;SDS011;75147;50.294;18.660;2024-02-21T02:59:46;13.45;;;4.88;;
84288;SDS011;75147;50.294;18.660;2024-02-21T03:02:16;12.85;;;5.15;;
84288;SDS011;75147;50.294;18.660;2024-02-21T03:04:42;14.00;;;5.40;;
84288;SDS011;75147;50.294;18.660;2024-02-21T03:07:08;17.40;;;6.13;;
84288;SDS011;75147;50.294;18.660;2024-02-21T03:09:36;11.57;;;5.47;;
84288;SDS011;75147;50.294;18.660;2024-02-21T03:12:02;16.67;;;5.28;;
84288;SDS011;75147;50.294;18.660;2024-02-21T03:14:31;14.60;;;4.80;;
84288;SDS011;75147;50.294;18.660;2024-02-21T03:16:59;12.15;;;4.88;;
84288;SDS011;75147;50.294;18.660;2024-02-21T03:19:25;12.38;;;4.72;;
84288;SDS011;75147;50.294;18.660;2024-02-21T03:21:53;14.48;;;5.05;;
84288;SDS011;75147;50.294;18.660;2024-02-21T03:24:19;11.68;;;4.75;;
84288;SDS011;75147;50.294;18.660;2024-02-21T03:26:44;11.27;;;5.28;;
84288;SDS011;75147;50.294;18.660;2024-02-21T03:29:12;10.57;;;4.90;;
84288;SDS011;75147;50.294;18.660;2024-02-21T03:31:37;11.27;;;4.82;;
84288;SDS011;75147;50.294;18.660;2024-02-21T03:34:03;10.32;;;5.20;;
84288;SDS011;75147;50.294;18.660;2024-02-21T03:36:28;12.85;;;4.95;;
84288;SDS011;75147;50.294;18.660;2024-02-21T03:38:54;15.07;;;5.65;;
84288;SDS011;75147;50.294;18.660;2024-02-21T03:41:20;15.52;;;5.40;;
84288;SDS011;75147;50.294;18.660;2024-02-21T03:43:45;10.85;;;5.78;;
84288;SDS011;75147;50.294;18.660;2024-02-21T03:46:11;13.77;;;6.05;;
84288;SDS011;75147;50.294;18.660;2024-02-21T03:48:36;11.93;;;5.85;;
84288;SDS011;75147;50.294;18.660;2024-02-21T03:51:02;13.13;;;5.97;;
84288;SDS011;75147;50.294;18.660;2024-02-21T03:53:27;17.83;;;6.15;;
84288;SDS011;75147;50.294;18.660;2024-02-21T03:55:53;18.77;;;6.85;;
84288;SDS011;75147;50.294;18.660;2024-02-21T03:58:19;14.65;;;5.85;;
84288;SDS011;75147;50.294;18.660;2024-02-21T04:00:45;17.92;;;6.55;;
84288;SDS011;75147;50.294;18.660;2024-02-21T04:03:10;13.23;;;6.35;;
84288;SDS011;75147;50.294;18.660;2024-02-21T04:05:35;22.25;;;7.18;;
84288;SDS011;75147;50.294;18.660;2024-02-21T04:08:03;12.10;;;5.57;;
84288;SDS011;75147;50.294;18.660;2024-02-21T04:10:29;12.70;;;5.28;;
84288;SDS011;75147;50.294;18.660;2024-02-21T04:12:55;15.65;;;6.25;;
84288;SDS011;75147;50.294;18.660;2024-02-21T04:15:20;10.00;;;5.72;;
84288;SDS011;75147;50.294;18.660;2024-02-21T04:17:46;13.02;;;5.82;;
84288;SDS011;75147;50.294;18.660;2024-02-21T04:20:15;11.73;;;5.95;;
84288;SDS011;75147;50.294;18.660;2024-02-21T04:25:10;13.88;;;5.18;;
84288;SDS011;75147;50.294;18.660;2024-02-21T04:27:36;10.98;;;5.18;;
84288;SDS011;75147;50.294;18.660;2024-02-21T04:30:05;13.88;;;5.88;;
84288;SDS011;75147;50.294;18.660;2024-02-21T04:32:31;11.40;;;5.82;;
84288;SDS011;75147;50.294;18.660;2024-02-21T04:34:57;11.80;;;5.22;;
84288;SDS011;75147;50.294;18.660;2024-02-21T04:37:22;14.20;;;6.80;;
84288;SDS011;75147;50.294;18.660;2024-02-21T04:39:48;13.73;;;5.65;;
84288;SDS011;75147;50.294;18.660;2024-02-21T04:42:14;14.45;;;5.82;;
84288;SDS011;75147;50.294;18.660;2024-02-21T04:44:40;13.57;;;6.00;;
84288;SDS011;75147;50.294;18.660;2024-02-21T04:47:05;14.40;;;6.32;;
84288;SDS011;75147;50.294;18.660;2024-02-21T04:49:30;12.77;;;5.78;;
84288;SDS011;75147;50.294;18.660;2024-02-21T04:51:56;15.40;;;7.00;;
84288;SDS011;75147;50.294;18.660;2024-02-21T04:54:21;19.02;;;6.97;;
84288;SDS011;75147;50.294;18.660;2024-02-21T04:56:46;17.25;;;6.43;;
84288;SDS011;75147;50.294;18.660;2024-02-21T04:59:12;12.77;;;6.72;;
84288;SDS011;75147;50.294;18.660;2024-02-21T05:01:37;13.88;;;6.07;;
84288;SDS011;75147;50.294;18.660;2024-02-21T05:04:03;16.48;;;6.90;;
84288;SDS011;75147;50.294;18.660;2024-02-21T05:06:28;16.17;;;8.00;;
84288;SDS011;75147;50.294;18.660;2024-02-21T05:08:54;17.90;;;7.75;;
84288;SDS011;75147;50.294;18.660;2024-02-21T05:11:20;18.65;;;7.40;;
84288;SDS011;75147;50.294;18.660;2024-02-21T05:13:46;15.32;;;7.53;;
84288;SDS011;75147;50.294;18.660;2024-02-21T05:16:12;15.02;;;7.63;;
84288;SDS011;75147;50.294;18.660;2024-02-21T05:18:37;14.82;;;7.53;;
84288;SDS011;75147;50.294;18.660;2024-02-21T05:21:03;14.02;;;7.35;;
84288;SDS011;75147;50.294;18.660;2024-02-21T05:23:28;11.32;;;6.32;;
84288;SDS011;75147;50.294;18.660;2024-02-21T05:25:53;12.73;;;6.65;;
84288;SDS011;75147;50.294;18.660;2024-02-21T05:28:19;14.93;;;7.13;;
84288;SDS011;75147;50.294;18.660;2024-02-21T05:30:44;20.20;;;7.70;;
84288;SDS011;75147;50.294;18.660;2024-02-21T05:33:10;15.32;;;6.95;;
84288;SDS011;75147;50.294;18.660;2024-02-21T05:35:35;15.38;;;7.22;;
84288;SDS011;75147;50.294;18.660;2024-02-21T05:38:01;14.10;;;6.90;;
84288;SDS011;75147;50.294;18.660;2024-02-21T05:40:31;14.38;;;6.95;;
84288;SDS011;75147;50.294;18.660;2024-02-21T05:42:57;13.05;;;7.55;;
84288;SDS011;75147;50.294;18.660;2024-02-21T05:45:22;13.68;;;7.20;;
84288;SDS011;75147;50.294;18.660;2024-02-21T05:47:48;15.68;;;7.53;;
84288;SDS011;75147;50.294;18.660;2024-02-21T05:50:15;19.63;;;7.53;;
84288;SDS011;75147;50.294;18.660;2024-02-21T05:52:40;17.48;;;7.97;;
84288;SDS011;75147;50.294;18.660;2024-02-21T05:55:06;18.73;;;7.82;;
84288;SDS011;75147;50.294;18.660;2024-02-21T05:57:32;17.45;;;8.07;;
84288;SDS011;75147;50.294;18.660;2024-02-21T05:59:58;18.77;;;8.32;;
84288;SDS011;75147;50.294;18.660;2024-02-21T06:02:23;14.57;;;8.23;;
84288;SDS011;75147;50.294;18.660;2024-02-21T06:04:49;19.63;;;9.15;;
84288;SDS011;75147;50.294;18.660;2024-02-21T06:07:14;15.60;;;8.80;;
84288;SDS011;75147;50.294;18.660;2024-02-21T06:09:40;18.40;;;8.23;;
84288;SDS011;75147;50.294;18.660;2024-02-21T06:12:06;17.38;;;8.68;;
84288;SDS011;75147;50.294;18.660;2024-02-21T06:14:31;18.48;;;9.50;;
84288;SDS011;75147;50.294;18.660;2024-02-21T06:16:57;16.95;;;9.25;;
84288;SDS011;75147;50.294;18.660;2024-02-21T06:19:22;21.13;;;9.95;;
84288;SDS011;75147;50.294;18.660;2024-02-21T06:21:47;18.55;;;9.55;;
84288;SDS011;75147;50.294;18.660;2024-02-21T06:24:13;17.05;;;9.18;;
84288;SDS011;75147;50.294;18.660;2024-02-21T06:26:39;18.80;;;9.20;;
84288;SDS011;75147;50.294;18.660;2024-02-21T06:29:05;16.08;;;8.88;;
84288;SDS011;75147;50.294;18.660;2024-02-21T06:31:31;19.70;;;9.27;;
84288;SDS011;75147;50.294;18.660;2024-02-21T06:33:56;19.48;;;9.55;;
84288;SDS011;75147;50.294;18.660;2024-02-21T06:36:22;22.23;;;11.60;;
84288;SDS011;75147;50.294;18.660;2024-02-21T06:38:47;16.50;;;9.57;;
84288;SDS011;75147;50.294;18.660;2024-02-21T06:41:16;17.75;;;9.48;;
84288;SDS011;75147;50.294;18.660;2024-02-21T06:43:45;21.85;;;11.68;;
84288;SDS011;75147;50.294;18.660;2024-02-21T06:46:11;23.77;;;10.32;;
84288;SDS011;75147;50.294;18.660;2024-02-21T06:48:37;17.40;;;9.77;;
84288;SDS011;75147;50.294;18.660;2024-02-21T06:51:02;21.58;;;10.57;;
84288;SDS011;75147;50.294;18.660;2024-02-21T06:53:28;22.08;;;10.18;;
84288;SDS011;75147;50.294;18.660;2024-02-21T06:55:53;20.20;;;9.80;;
84288;SDS011;75147;50.294;18.660;2024-02-21T06:58:19;21.25;;;11.30;;
84288;SDS011;75147;50.294;18.660;2024-02-21T07:00:44;19.98;;;10.43;;
84288;SDS011;75147;50.294;18.660;2024-02-21T07:03:10;24.63;;;10.73;;
84288;SDS011;75147;50.294;18.660;2024-02-21T07:05:35;23.80;;;11.38;;
84288;SDS011;75147;50.294;18.660;2024-02-21T07:08:01;22.92;;;11.25;;
84288;SDS011;75147;50.294;18.660;2024-02-21T07:10:28;23.38;;;11.80;;
84288;SDS011;75147;50.294;18.660;2024-02-21T07:12:54;22.88;;;11.73;;
84288;SDS011;75147;50.294;18.660;2024-02-21T07:15:20;21.98;;;11.35;;
84288;SDS011;75147;50.294;18.660;2024-02-21T07:17:45;23.92;;;11.45;;
84288;SDS011;75147;50.294;18.660;2024-02-21T07:20:11;22.08;;;12.20;;
84288;SDS011;75147;50.294;18.660;2024-02-21T07:22:36;23.70;;;11.40;;
84288;SDS011;75147;50.294;18.660;2024-02-21T07:25:02;24.25;;;11.10;;
84288;SDS011;75147;50.294;18.660;2024-02-21T07:27:28;18.23;;;10.80;;
84288;SDS011;75147;50.294;18.660;2024-02-21T07:29:56;20.92;;;10.88;;
84288;SDS011;75147;50.294;18.660;2024-02-21T07:32:21;25.65;;;11.40;;
84288;SDS011;75147;50.294;18.660;2024-02-21T07:34:47;22.08;;;10.55;;
84288;SDS011;75147;50.294;18.660;2024-02-21T07:37:12;23.27;;;10.20;;
84288;SDS011;75147;50.294;18.660;2024-02-21T07:39:38;20.42;;;10.40;;
84288;SDS011;75147;50.294;18.660;2024-02-21T07:42:03;21.35;;;10.52;;
84288;SDS011;75147;50.294;18.660;2024-02-21T07:44:29;18.35;;;9.43;;
84288;SDS011;75147;50.294;18.660;2024-02-21T07:46:54;24.05;;;10.23;;
84288;SDS011;75147;50.294;18.660;2024-02-21T07:49:19;19.88;;;10.60;;
84288;SDS011;75147;50.294;18.660;2024-02-21T07:51:45;17.50;;;8.98;;
84288;SDS011;75147;50.294;18.660;2024-02-21T07:54:10;15.65;;;8.98;;
84288;SDS011;75147;50.294;18.660;2024-02-21T07:56:36;20.10;;;8.90;;
84288;SDS011;75147;50.294;18.660;2024-02-21T07:59:01;23.25;;;8.82;;
84288;SDS011;75147;50.294;18.660;2024-02-21T08:01:26;19.27;;;9.43;;
84288;SDS011;75147;50.294;18.660;2024-02-21T08:03:52;19.92;;;9.50;;
84288;SDS011;75147;50.294;18.660;2024-02-21T08:06:17;21.40;;;9.77;;
84288;SDS011;75147;50.294;18.660;2024-02-21T08:08:43;24.65;;;10.65;;
84288;SDS011;75147;50.294;18.660;2024-02-21T08:11:08;22.80;;;10.60;;
84288;SDS011;75147;50.294;18.660;2024-02-21T08:13:34;20.25;;;9.63;;
84288;SDS011;75147;50.294;18.660;2024-02-21T08:16:00;20.48;;;9.70;;
84288;SDS011;75147;50.294;18.660;2024-02-21T08:18:25;26.30;;;10.57;;
84288;SDS011;75147;50.294;18.660;2024-02-21T08:20:50;20.92;;;9.68;;
84288;SDS011;75147;50.294;18.660;2024-02-21T08:23:16;20.90;;;9.63;;
84288;SDS011;75147;50.294;18.660;2024-02-21T08:25:42;16.38;;;8.02;;
84288;SDS011;75147;50.294;18.660;2024-02-21T08:28:07;17.75;;;9.18;;
84288;SDS011;75147;50.294;18.660;2024-02-21T08:30:33;19.58;;;9.15;;
84288;SDS011;75147;50.294;18.660;2024-02-21T08:32:59;21.27;;;7.32;;
84288;SDS011;75147;50.294;18.660;2024-02-21T08:35:24;20.92;;;8.20;;
84288;SDS011;75147;50.294;18.660;2024-02-21T08:37:49;19.98;;;8.95;;
84288;SDS011;75147;50.294;18.660;2024-02-21T08:40:15;19.98;;;9.38;;
84288;SDS011;75147;50.294;18.660;2024-02-21T08:42:46;17.50;;;8.13;;
84288;SDS011;75147;50.294;18.660;2024-02-21T08:45:12;21.25;;;9.07;;
84288;SDS011;75147;50.294;18.660;2024-02-21T08:47:40;23.25;;;7.90;;
84288;SDS011;75147;50.294;18.660;2024-02-21T08:50:06;17.38;;;8.27;;
84288;SDS011;75147;50.294;18.660;2024-02-21T08:52:32;15.38;;;7.60;;
84288;SDS011;75147;50.294;18.660;2024-02-21T08:54:57;16.98;;;7.93;;
84288;SDS011;75147;50.294;18.660;2024-02-21T08:57:23;18.48;;;7.72;;
84288;SDS011;75147;50.294;18.660;2024-02-21T08:59:48;14.15;;;7.55;;
84288;SDS011;75147;50.294;18.660;2024-02-21T09:02:14;14.93;;;6.63;;
84288;SDS011;75147;50.294;18.660;2024-02-21T09:04:41;18.27;;;8.23;;
84288;SDS011;75147;50.294;18.660;2024-02-21T09:07:06;17.67;;;6.72;;
84288;SDS011;75147;50.294;18.660;2024-02-21T09:09:34;15.75;;;6.78;;
84288;SDS011;75147;50.294;18.660;2024-02-21T09:12:00;14.27;;;7.60;;
84288;SDS011;75147;50.294;18.660;2024-02-21T09:14:33;15.63;;;6.82;;
84288;SDS011;75147;50.294;18.660;2024-02-21T09:16:59;21.77;;;8.48;;
84288;SDS011;75147;50.294;18.660;2024-02-21T09:19:25;17.42;;;6.80;;
84288;SDS011;75147;50.294;18.660;2024-02-21T09:21:50;28.42;;;8.38;;
84288;SDS011;75147;50.294;18.660;2024-02-21T09:24:17;30.45;;;8.38;;
84288;SDS011;75147;50.294;18.660;2024-02-21T09:26:42;19.08;;;7.82;;
84288;SDS011;75147;50.294;18.660;2024-02-21T09:29:08;16.95;;;7.10;;
84288;SDS011;75147;50.294;18.660;2024-02-21T09:31:33;18.23;;;7.07;;
84288;SDS011;75147;50.294;18.660;2024-02-21T09:33:58;18.75;;;6.82;;
84288;SDS011;75147;50.294;18.660;2024-02-21T09:36:24;15.65;;;6.45;;
84288;SDS011;75147;50.294;18.660;2024-02-21T09:38:49;14.00;;;6.35;;
84288;SDS011;75147;50.294;18.660;2024-02-21T09:41:16;17.52;;;6.55;;
84288;SDS011;75147;50.294;18.660;2024-02-21T09:43:42;13.52;;;6.43;;
84288;SDS011;75147;50.294;18.660;2024-02-21T09:46:13;12.13;;;4.90;;
84288;SDS011;75147;50.294;18.660;2024-02-21T09:48:48;13.85;;;5.75;;
84288;SDS011;75147;50.294;18.660;2024-02-21T09:51:34;10.30;;;4.35;;
84288;SDS011;75147;50.294;18.660;2024-02-21T09:54:01;9.55;;;4.30;;
84288;SDS011;75147;50.294;18.660;2024-02-21T09:56:28;11.43;;;5.53;;
84288;SDS011;75147;50.294;18.660;2024-02-21T09:58:54;10.35;;;4.63;;
84288;SDS011;75147;50.294;18.660;2024-02-21T10:01:20;9.10;;;4.90;;
84288;SDS011;75147;50.294;18.660;2024-02-21T10:03:45;10.13;;;4.45;;
84288;SDS011;75147;50.294;18.660;2024-02-21T10:06:11;7.18;;;4.50;;
84288;SDS011;75147;50.294;18.660;2024-02-21T10:08:36;7.75;;;4.25;;
84288;SDS011;75147;50.294;18.660;2024-02-21T10:11:02;9.85;;;4.35;;
84288;SDS011;75147;50.294;18.660;2024-02-21T10:13:28;15.40;;;5.00;;
84288;SDS011;75147;50.294;18.660;2024-02-21T10:16:01;10.57;;;4.32;;
84288;SDS011;75147;50.294;18.660;2024-02-21T10:18:30;15.13;;;4.47;;
84288;SDS011;75147;50.294;18.660;2024-02-21T10:21:03;10.82;;;4.60;;
84288;SDS011;75147;50.294;18.660;2024-02-21T10:23:46;10.35;;;4.20;;
84288;SDS011;75147;50.294;18.660;2024-02-21T10:26:16;11.18;;;4.25;;
84288;SDS011;75147;50.294;18.660;2024-02-21T10:28:43;10.55;;;4.00;;
84288;SDS011;75147;50.294;18.660;2024-02-21T10:31:10;10.45;;;4.68;;
84288;SDS011;75147;50.294;18.660;2024-02-21T10:33:53;10.30;;;4.53;;
84288;SDS011;75147;50.294;18.660;2024-02-21T10:36:22;11.68;;;4.45;;
84288;SDS011;75147;50.294;18.660;2024-02-21T10:38:49;8.38;;;4.05;;
84288;SDS011;75147;50.294;18.660;2024-02-21T10:41:15;7.70;;;3.78;;
84288;SDS011;75147;50.294;18.660;2024-02-21T10:43:43;6.28;;;3.90;;
84288;SDS011;75147;50.294;18.660;2024-02-21T10:46:14;10.90;;;4.25;;
84288;SDS011;75147;50.294;18.660;2024-02-21T10:48:44;11.88;;;4.07;;
84288;SDS011;75147;50.294;18.660;2024-02-21T10:53:47;9.65;;;3.75;;
84288;SDS011;75147;50.294;18.660;2024-02-21T10:59:03;9.35;;;3.60;;
84288;SDS011;75147;50.294;18.660;2024-02-21T11:01:30;8.52;;;3.38;;
84288;SDS011;75147;50.294;18.660;2024-02-21T11:04:10;10.35;;;3.53;;
84288;SDS011;75147;50.294;18.660;2024-02-21T11:06:37;12.88;;;4.28;;
84288;SDS011;75147;50.294;18.660;2024-02-21T11:09:05;8.50;;;3.13;;
84288;SDS011;75147;50.294;18.660;2024-02-21T11:11:38;7.63;;;3.55;;
84288;SDS011;75147;50.294;18.660;2024-02-21T11:16:34;11.18;;;3.72;;
84288;SDS011;75147;50.294;18.660;2024-02-21T11:19:08;10.93;;;3.90;;
84288;SDS011;75147;50.294;18.660;2024-02-21T11:21:36;8.57;;;3.67;;
84288;SDS011;75147;50.294;18.660;2024-02-21T11:24:05;8.10;;;3.70;;
84288;SDS011;75147;50.294;18.660;2024-02-21T11:26:31;10.25;;;3.65;;
84288;SDS011;75147;50.294;18.660;2024-02-21T11:29:01;7.35;;;3.67;;
84288;SDS011;75147;50.294;18.660;2024-02-21T11:31:38;9.75;;;3.80;;
84288;SDS011;75147;50.294;18.660;2024-02-21T11:34:08;8.15;;;3.50;;
84288;SDS011;75147;50.294;18.660;2024-02-21T11:36:34;7.55;;;3.40;;
84288;SDS011;75147;50.294;18.660;2024-02-21T11:39:05;10.15;;;3.85;;
84288;SDS011;75147;50.294;18.660;2024-02-21T11:41:31;8.88;;;3.45;;
84288;SDS011;75147;50.294;18.660;2024-02-21T11:43:57;8.05;;;3.78;;
84288;SDS011;75147;50.294;18.660;2024-02-21T11:46:22;7.80;;;4.00;;
84288;SDS011;75147;50.294;18.660;2024-02-21T11:48:48;10.95;;;3.80;;
84288;SDS011;75147;50.294;18.660;2024-02-21T11:51:26;11.25;;;4.30;;
84288;SDS011;75147;50.294;18.660;2024-02-21T11:53:54;8.20;;;3.97;;
84288;SDS011;75147;50.294;18.660;2024-02-21T11:56:20;8.80;;;4.38;;
84288;SDS011;75147;50.294;18.660;2024-02-21T11:58:46;8.40;;;4.35;;
84288;SDS011;75147;50.294;18.660;2024-02-21T12:01:13;10.73;;;4.43;;
84288;SDS011;75147;50.294;18.660;2024-02-21T12:03:38;8.52;;;4.15;;
84288;SDS011;75147;50.294;18.660;2024-02-21T12:06:06;10.68;;;4.07;;
84288;SDS011;75147;50.294;18.660;2024-02-21T12:08:44;10.10;;;4.07;;
84288;SDS011;75147;50.294;18.660;2024-02-21T12:11:22;9.27;;;4.07;;
84288;SDS011;75147;50.294;18.660;2024-02-21T12:14:03;10.88;;;4.03;;
84288;SDS011;75147;50.294;18.660;2024-02-21T12:16:33;10.27;;;4.80;;
84288;SDS011;75147;50.294;18.660;2024-02-21T12:18:58;12.50;;;5.22;;
84288;SDS011;75147;50.294;18.660;2024-02-21T12:21:31;13.85;;;5.22;;
84288;SDS011;75147;50.294;18.660;2024-02-21T12:24:11;10.00;;;4.30;;
84288;SDS011;75147;50.294;18.660;2024-02-21T12:26:37;8.15;;;4.13;;
84288;SDS011;75147;50.294;18.660;2024-02-21T12:29:03;6.07;;;3.47;;
84288;SDS011;75147;50.294;18.660;2024-02-21T12:31:28;11.07;;;4.20;;
84288;SDS011;75147;50.294;18.660;2024-02-21T12:33:54;6.93;;;3.90;;
84288;SDS011;75147;50.294;18.660;2024-02-21T12:36:20;12.35;;;5.22;;
84288;SDS011;75147;50.294;18.660;2024-02-21T12:38:45;7.18;;;4.57;;
84288;SDS011;75147;50.294;18.660;2024-02-21T12:41:13;13.45;;;5.38;;
84288;SDS011;75147;50.294;18.660;2024-02-21T12:43:39;9.77;;;4.20;;
84288;SDS011;75147;50.294;18.660;2024-02-21T12:46:05;11.13;;;4.60;;
84288;SDS011;75147;50.294;18.660;2024-02-21T12:48:32;8.43;;;4.47;;
84288;SDS011;75147;50.294;18.660;2024-02-21T12:50:58;15.95;;;4.70;;
84288;SDS011;75147;50.294;18.660;2024-02-21T12:53:23;8.38;;;3.85;;
84288;SDS011;75147;50.294;18.660;2024-02-21T12:55:49;10.38;;;4.32;;
84288;SDS011;75147;50.294;18.660;2024-02-21T12:58:15;13.20;;;3.97;;
84288;SDS011;75147;50.294;18.660;2024-02-21T13:00:41;10.25;;;4.70;;
84288;SDS011;75147;50.294;18.660;2024-02-21T13:03:07;10.15;;;4.80;;
84288;SDS011;75147;50.294;18.660;2024-02-21T13:05:35;12.35;;;4.72;;
84288;SDS011;75147;50.294;18.660;2024-02-21T13:08:01;10.48;;;4.80;;
84288;SDS011;75147;50.294;18.660;2024-02-21T13:10:26;16.25;;;5.72;;
84288;SDS011;75147;50.294;18.660;2024-02-21T13:12:52;14.07;;;5.88;;
84288;SDS011;75147;50.294;18.660;2024-02-21T13:15:17;13.75;;;6.97;;
84288;SDS011;75147;50.294;18.660;2024-02-21T13:17:43;13.70;;;5.82;;
84288;SDS011;75147;50.294;18.660;2024-02-21T13:20:09;13.98;;;5.85;;
84288;SDS011;75147;50.294;18.660;2024-02-21T13:22:36;12.00;;;5.00;;
84288;SDS011;75147;50.294;18.660;2024-02-21T13:25:01;14.35;;;6.13;;
84288;SDS011;75147;50.294;18.660;2024-02-21T13:27:27;12.63;;;4.50;;
84288;SDS011;75147;50.294;18.660;2024-02-21T13:29:53;11.65;;;5.18;;
84288;SDS011;75147;50.294;18.660;2024-02-21T13:32:18;11.75;;;5.50;;
84288;SDS011;75147;50.294;18.660;2024-02-21T13:34:44;12.40;;;4.93;;
84288;SDS011;75147;50.294;18.660;2024-02-21T13:37:09;18.08;;;6.43;;
84288;SDS011;75147;50.294;18.660;2024-02-21T13:39:35;14.57;;;5.18;;
84288;SDS011;75147;50.294;18.660;2024-02-21T13:42:01;9.77;;;4.50;;
84288;SDS011;75147;50.294;18.660;2024-02-21T13:44:30;11.85;;;4.85;;
84288;SDS011;75147;50.294;18.660;2024-02-21T13:46:56;20.75;;;6.15;;
84288;SDS011;75147;50.294;18.660;2024-02-21T13:49:21;14.65;;;4.75;;
84288;SDS011;75147;50.294;18.660;2024-02-21T13:51:47;11.00;;;4.90;;
84288;SDS011;75147;50.294;18.660;2024-02-21T13:54:12;15.40;;;5.45;;
84288;SDS011;75147;50.294;18.660;2024-02-21T13:56:42;24.83;;;5.35;;
84288;SDS011;75147;50.294;18.660;2024-02-21T13:59:07;11.88;;;4.60;;
84288;SDS011;75147;50.294;18.660;2024-02-21T14:01:34;10.20;;;5.45;;
84288;SDS011;75147;50.294;18.660;2024-02-21T14:04:00;11.30;;;4.97;;
84288;SDS011;75147;50.294;18.660;2024-02-21T14:06:26;10.90;;;5.35;;
84288;SDS011;75147;50.294;18.660;2024-02-21T14:08:52;13.27;;;5.78;;
84288;SDS011;75147;50.294;18.660;2024-02-21T14:11:18;12.18;;;6.05;;
84288;SDS011;75147;50.294;18.660;2024-02-21T14:13:44;14.25;;;5.68;;
84288;SDS011;75147;50.294;18.660;2024-02-21T14:16:23;15.63;;;8.07;;
84288;SDS011;75147;50.294;18.660;2024-02-21T14:18:49;14.88;;;6.10;;
84288;SDS011;75147;50.294;18.660;2024-02-21T14:21:14;12.35;;;6.30;;
84288;SDS011;75147;50.294;18.660;2024-02-21T14:23:40;15.57;;;6.07;;
84288;SDS011;75147;50.294;18.660;2024-02-21T14:26:05;11.98;;;5.80;;
84288;SDS011;75147;50.294;18.660;2024-02-21T14:28:31;9.23;;;5.30;;
84288;SDS011;75147;50.294;18.660;2024-02-21T14:30:58;17.25;;;6.70;;